Terminal Aerodrome Forecast
Issued by NWS Bismarck, ND

Home | Current Version | Previous Version | Text Only | Print | Product List | Glossary On
Versions: 1 2 3 4 5 6 7 8 9 10 11 12 13 14 15 16 17
000
FTUS43 KBIS 040600 AAA
TAFBIS
TAF AMD
KBIS 040600Z 0406/0506 32011KT P6SM SCT035
      TEMPO 0406/0408 32015G25KT 2SM -SN OVC025
     FM040800 31014KT P6SM OVC030
     FM041400 31015G20KT P6SM FEW250=

USA.gov is the U.S. government's official web portal to all federal, state and local government web resources and services.